Time;durP1;ratioP1;P1;durP2;ratioP2;P2;SDS_P1;SDS_P2;PMS_P1;PMS_P2;Temp;Humidity;BMP_temperature;BMP_pressure;BME280_temperature;BME280_humidity;BME280_pressure;Samples;Min_cycle;Max_cycle;Signal;HPM_P1;HPM_P2
2023/12/05 00:00:21;;;;;;;;;;;;;;;2.03;100.00;99825.31;4995714;28;19932;-60
2023/12/05 00:02:46;;;;;;;;;;;;;;;2.03;100.00;99818.28;4992129;28;19925;-60
2023/12/05 00:05:11;;;;;;;;;;;;;;;2.03;100.00;99823.53;4995596;28;19933;-60
2023/12/05 00:07:37;;;;;;;;;;;;;;;2.03;100.00;99812.22;4993411;28;20003;-61
2023/12/05 00:10:02;;;;;;;;;;;;;;;2.06;100.00;99817.19;4993225;28;20038;-60
2023/12/05 00:12:27;;;;;;;;;;;;;;;2.06;100.00;99815.41;4993965;28;21370;-60
2023/12/05 00:14:52;;;;;;;;;;;;;;;2.09;100.00;99811.66;4997435;28;20314;-60
2023/12/05 00:17:18;;;;;;;;;;;;;;;2.02;100.00;99805.31;4987900;28;19928;-61
2023/12/05 00:19:43;;;;;;;;;;;;;;;2.09;100.00;99819.53;4992866;28;19965;-60
2023/12/05 00:22:08;;;;;;;;;;;;;;;2.12;100.00;99808.75;4992583;28;19921;-61
2023/12/05 00:24:34;;;;;;;;;;;;;;;2.12;100.00;99808.75;4990745;28;20149;-61
2023/12/05 00:26:59;;;;;;;;;;;;;;;2.12;100.00;99803.53;4990829;28;19913;-61
2023/12/05 00:29:24;;;;;;;;;;;;;;;2.15;100.00;99803.22;4989836;28;20020;-61
2023/12/05 00:31:49;;;;;;;;;;;;;;;2.14;100.00;99798.97;4986476;28;19917;-61
2023/12/05 00:34:14;;;;;;;;;;;;;;;2.15;100.00;99800.63;4989978;28;19921;-61
2023/12/05 00:36:40;;;;;;;;;;;;;;;2.16;100.00;99794.41;4989645;28;19918;-61
2023/12/05 00:39:05;;;;;;;;;;;;;;;2.19;100.00;99794.13;4991222;28;20399;-60
2023/12/05 00:41:30;;;;;;;;;;;;;;;2.18;100.00;99801.16;4994122;28;19917;-61
2023/12/05 00:43:55;;;;;;;;;;;;;;;2.20;100.00;99803.63;4993443;28;19928;-61
2023/12/05 00:46:22;;;;;;;;;;;;;;;2.23;100.00;99797.28;4990824;28;19921;-61
2023/12/05 00:48:47;;;;;;;;;;;;;;;2.22;100.00;99791.22;4988399;28;19925;-60
2023/12/05 00:51:12;;;;;;;;;;;;;;;2.24;100.00;99793.69;4990263;28;20299;-61
2023/12/05 00:53:38;;;;;;;;;;;;;;;2.24;100.00;99796.31;4995423;28;19997;-61
2023/12/05 00:56:03;;;;;;;;;;;;;;;2.26;100.00;99797.81;4991481;28;20410;-61
2023/12/05 00:58:28;;;;;;;;;;;;;;;2.27;100.00;99793.41;4992588;28;20025;-61
2023/12/05 01:00:53;;;;;;;;;;;;;;;2.28;100.00;99800.28;4993177;28;19917;-61
2023/12/05 01:03:20;;;;;;;;;;;;;;;2.29;100.00;99792.28;4990364;28;19918;-61
2023/12/05 01:05:45;;;;;;;;;;;;;;;2.31;100.00;99787.72;4991894;28;20307;-61
2023/12/05 01:08:10;;;;;;;;;;;;;;;2.34;100.00;99786.63;4992903;28;19918;-61
2023/12/05 01:10:35;;;;;;;;;;;;;;;2.36;100.00;99785.53;4994058;28;19979;-61
2023/12/05 01:13:02;;;;;;;;;;;;;;;2.37;100.00;99788.97;4987993;28;19921;-61
2023/12/05 01:15:28;;;;;;;;;;;;;;;2.39;100.00;99787.03;4993274;28;20056;-61
2023/12/05 01:17:53;;;;;;;;;;;;;;;2.41;100.00;99779.84;4989186;28;19927;-61
2023/12/05 01:20:19;;;;;;;;;;;;;;;2.38;100.00;99780.97;4989650;28;19927;-61
2023/12/05 01:22:44;;;;;;;;;;;;;;;2.38;100.00;99775.72;4992670;28;20076;-60
2023/12/05 01:25:09;;;;;;;;;;;;;;;2.39;100.00;99773.94;4990199;28;20038;-60
2023/12/05 01:27:35;;;;;;;;;;;;;;;2.43;100.00;99780.53;4993684;28;19969;-61
2023/12/05 01:30:00;;;;;;;;;;;;;;;2.45;100.00;99781.22;4992843;28;19931;-60
2023/12/05 01:32:25;;;;;;;;;;;;;;;2.40;100.00;99767.72;4992692;28;19925;-61
2023/12/05 01:34:50;;;;;;;;;;;;;;;2.41;100.00;99780.69;4993268;28;20028;-60
2023/12/05 01:37:15;;;;;;;;;;;;;;;2.43;100.00;99773.50;4990197;28;19920;-61
2023/12/05 01:39:41;;;;;;;;;;;;;;;2.47;100.00;99771.41;4991387;28;19929;-61
2023/12/05 01:42:06;;;;;;;;;;;;;;;2.48;100.00;99781.75;4990354;28;20683;-61
2023/12/05 01:44:31;;;;;;;;;;;;;;;2.48;100.00;99771.25;4990714;28;19959;-60
2023/12/05 01:46:57;;;;;;;;;;;;;;;2.47;100.00;99780.09;4991248;28;19971;-60
2023/12/05 01:49:22;;;;;;;;;;;;;;;2.49;100.00;99786.00;4993679;28;20020;-61
2023/12/05 01:51:48;;;;;;;;;;;;;;;2.48;100.00;99783.53;4992975;28;20008;-60
2023/12/05 01:54:14;;;;;;;;;;;;;;;2.48;100.00;99780.91;4986585;28;19917;-60
2023/12/05 01:56:39;;;;;;;;;;;;;;;2.49;100.00;99793.03;4987178;28;19926;-60
2023/12/05 01:59:05;;;;;;;;;;;;;;;2.50;100.00;99792.06;4989625;28;19924;-60
2023/12/05 02:01:31;;;;;;;;;;;;;;;2.52;100.00;99797.16;4991510;28;20688;-61
2023/12/05 02:03:57;;;;;;;;;;;;;;;2.52;100.00;99802.41;4989317;28;19917;-61
2023/12/05 02:06:22;;;;;;;;;;;;;;;2.55;100.00;99800.31;4988427;28;19928;-61
2023/12/05 02:08:52;;;;;;;;;;;;;;;2.55;100.00;99799.50;4992700;28;19925;-61
2023/12/05 02:11:17;;;;;;;;;;;;;;;2.56;100.00;99804.59;4991894;28;19957;-60
2023/12/05 02:13:43;;;;;;;;;;;;;;;2.58;100.00;99800.03;4992699;28;20056;-61
2023/12/05 02:16:08;;;;;;;;;;;;;;;2.58;100.00;99791.34;4989255;28;20012;-61
2023/12/05 02:18:37;;;;;;;;;;;;;;;2.62;100.00;99795.34;4990261;28;19913;-61
2023/12/05 02:21:13;;;;;;;;;;;;;;;2.61;100.00;99791.91;4989842;28;20095;-61
2023/12/05 02:23:57;;;;;;;;;;;;;;;2.61;100.00;99788.47;4993847;28;19966;-60
2023/12/05 02:26:40;;;;;;;;;;;;;;;2.58;100.00;99773.81;4988876;28;19918;-61
2023/12/05 02:29:06;;;;;;;;;;;;;;;2.64;100.00;99785.53;4983517;28;19921;-60
2023/12/05 02:31:31;;;;;;;;;;;;;;;2.64;100.00;99783.75;4990394;28;20902;-61
2023/12/05 02:33:56;;;;;;;;;;;;;;;2.64;100.00;99783.75;4987514;28;19922;-60
2023/12/05 02:36:30;;;;;;;;;;;;;;;2.67;100.00;99787.88;4990816;28;20379;-61
2023/12/05 02:38:55;;;;;;;;;;;;;;;2.70;100.00;99791.03;4991764;28;19917;-61
2023/12/05 02:41:24;;;;;;;;;;;;;;;2.71;100.00;99783.97;4994387;28;19924;-60
2023/12/05 02:43:57;;;;;;;;;;;;;;;2.71;100.00;99794.47;4987138;28;20769;-61
2023/12/05 02:46:23;;;;;;;;;;;;;;;2.71;100.00;99786.59;4986647;28;19937;-61
2023/12/05 02:48:49;;;;;;;;;;;;;;;2.71;100.00;99784.81;4993233;28;20051;-61
2023/12/05 02:51:14;;;;;;;;;;;;;;;2.73;100.00;99785.47;4991535;28;19959;-60
2023/12/05 02:53:39;;;;;;;;;;;;;;;2.74;100.00;99781.06;4994738;28;19960;-63
2023/12/05 02:56:05;;;;;;;;;;;;;;;2.74;100.00;99787.13;4993374;28;20699;-60
2023/12/05 02:58:30;;;;;;;;;;;;;;;2.74;100.00;99781.88;4996072;28;19914;-61
2023/12/05 03:00:55;;;;;;;;;;;;;;;2.76;100.00;99781.75;4992764;28;19918;-61
2023/12/05 03:03:20;;;;;;;;;;;;;;;2.76;100.00;99782.56;4999969;28;19961;-61
2023/12/05 03:05:46;;;;;;;;;;;;;;;2.77;100.00;99776.34;4996804;28;19943;-60
2023/12/05 03:08:11;;;;;;;;;;;;;;;2.80;100.00;99785.72;4999555;28;20023;-61
2023/12/05 03:10:36;;;;;;;;;;;;;;;2.80;100.00;99778.69;5001108;28;19929;-60
2023/12/05 03:13:01;;;;;;;;;;;;;;;2.82;100.00;99780.31;4997501;28;19917;-60
2023/12/05 03:15:26;;;;;;;;;;;;;;;2.81;100.00;99776.88;4998115;28;19980;-61
2023/12/05 03:17:52;;;;;;;;;;;;;;;2.83;100.00;99774.13;5001523;28;19913;-61
2023/12/05 03:20:17;;;;;;;;;;;;;;;2.85;100.00;99766.91;5001989;28;20343;-61
2023/12/05 03:22:42;;;;;;;;;;;;;;;2.86;100.00;99784.31;4996656;28;19920;-61
2023/12/05 03:25:07;;;;;;;;;;;;;;;2.86;100.00;99779.88;4998045;28;20408;-61
2023/12/05 03:27:33;;;;;;;;;;;;;;;2.87;100.00;99781.53;4995512;28;20423;-61
2023/12/05 03:29:58;;;;;;;;;;;;;;;2.88;100.00;99777.94;4998895;28;19932;-61
2023/12/05 03:32:23;;;;;;;;;;;;;;;2.88;100.00;99780.56;5003767;28;19967;-61
2023/12/05 03:34:48;;;;;;;;;;;;;;;2.89;100.00;99777.00;5006347;28;19956;-61
2023/12/05 03:37:14;;;;;;;;;;;;;;;2.89;100.00;99774.38;5003001;28;20011;-61
2023/12/05 03:39:39;;;;;;;;;;;;;;;2.90;100.00;99776.03;5000367;28;20744;-61
2023/12/05 03:42:04;;;;;;;;;;;;;;;2.91;100.00;99782.09;4994954;28;19957;-60
2023/12/05 03:44:30;;;;;;;;;;;;;;;2.91;100.00;99780.28;4998383;28;20020;-61
2023/12/05 03:46:55;;;;;;;;;;;;;;;2.92;100.00;99781.94;4998661;28;19914;-61
2023/12/05 03:49:20;;;;;;;;;;;;;;;2.93;100.00;99774.91;5002779;28;20125;-61
2023/12/05 03:51:45;;;;;;;;;;;;;;;2.94;100.00;99781.78;5001098;28;19942;-60
2023/12/05 03:54:10;;;;;;;;;;;;;;;2.96;100.00;99785.09;4999179;28;19944;-61
2023/12/05 03:56:36;;;;;;;;;;;;;;;2.95;100.00;99781.63;5000335;28;19924;-60
2023/12/05 03:59:01;;;;;;;;;;;;;;;2.96;100.00;99779.84;5001887;28;20051;-61
2023/12/05 04:01:26;;;;;;;;;;;;;;;2.96;100.00;99782.47;5001554;28;19921;-61
2023/12/05 04:03:51;;;;;;;;;;;;;;;2.96;100.00;99788.53;5002914;28;19920;-61
2023/12/05 04:06:23;;;;;;;;;;;;;;;2.98;100.00;99777.91;5000994;28;19928;-61
2023/12/05 04:08:49;;;;;;;;;;;;;;;2.99;100.00;99785.63;4998456;28;19980;-61
2023/12/05 04:11:14;;;;;;;;;;;;;;;3.00;100.00;99789.06;4997061;28;20028;-60
2023/12/05 04:13:40;;;;;;;;;;;;;;;3.01;100.00;99786.28;4997594;28;19917;-61
2023/12/05 04:16:05;;;;;;;;;;;;;;;3.02;100.00;99798.44;4998957;28;19917;-61
2023/12/05 04:18:31;;;;;;;;;;;;;;;3.02;100.00;99798.44;4993703;28;19947;-61
2023/12/05 04:20:56;;;;;;;;;;;;;;;3.04;100.00;99806.16;4996921;28;19917;-61
2023/12/05 04:23:21;;;;;;;;;;;;;;;3.04;100.00;99803.53;4990399;28;19920;-61
2023/12/05 04:25:46;;;;;;;;;;;;;;;3.00;100.00;99799.56;4998028;28;20563;-60
2023/12/05 04:28:12;;;;;;;;;;;;;;;3.07;100.00;99817.16;4996655;28;19920;-61
2023/12/05 04:30:37;;;;;;;;;;;;;;;3.07;100.00;99805.84;4993494;28;20319;-61
2023/12/05 04:33:02;;;;;;;;;;;;;;;3.07;100.00;99814.53;5000958;28;20379;-60
2023/12/05 04:35:27;;;;;;;;;;;;;;;3.07;100.00;99805.84;5001178;28;19917;-61
2023/12/05 04:37:52;;;;;;;;;;;;;;;3.08;100.00;99810.13;4995416;28;20590;-61
2023/12/05 04:40:19;;;;;;;;;;;;;;;3.09;100.00;99817.84;4994148;28;19944;-60
2023/12/05 04:42:44;;;;;;;;;;;;;;;3.10;100.00;99819.50;4994766;28;19917;-60
2023/12/05 04:45:09;;;;;;;;;;;;;;;3.11;100.00;99812.44;4994549;28;20294;-60
2023/12/05 04:47:34;;;;;;;;;;;;;;;3.11;100.00;99821.13;4986913;28;20414;-61
2023/12/05 04:49:59;;;;;;;;;;;;;;;3.12;100.00;99819.34;4997938;28;19921;-61
2023/12/05 04:52:25;;;;;;;;;;;;;;;3.11;100.00;99823.75;4996252;28;19996;-60
2023/12/05 04:54:50;;;;;;;;;;;;;;;3.13;100.00;99828.84;4995835;28;19996;-60
2023/12/05 04:57:15;;;;;;;;;;;;;;;3.13;100.00;99831.47;4991643;28;19953;-61
2023/12/05 04:59:40;;;;;;;;;;;;;;;3.14;100.00;99829.69;4997391;28;19923;-60
2023/12/05 05:02:05;;;;;;;;;;;;;;;3.14;100.00;99834.94;4999331;28;20562;-60
2023/12/05 05:04:31;;;;;;;;;;;;;;;3.15;100.00;99836.56;5004396;28;19963;-61
2023/12/05 05:06:56;;;;;;;;;;;;;;;3.15;100.00;99836.56;5001106;28;20605;-61
2023/12/05 05:09:21;;;;;;;;;;;;;;;3.16;100.00;99838.22;5000853;28;20634;-61
2023/12/05 05:11:46;;;;;;;;;;;;;;;3.16;100.00;99844.31;5000131;28;19964;-60
2023/12/05 05:14:11;;;;;;;;;;;;;;;3.17;100.00;99847.75;5001175;28;19924;-60
2023/12/05 05:16:37;;;;;;;;;;;;;;;3.17;100.00;99850.38;4997946;28;19917;-61
2023/12/05 05:19:02;;;;;;;;;;;;;;;3.19;100.00;99851.06;5000697;28;20305;-61
2023/12/05 05:21:27;;;;;;;;;;;;;;;3.19;100.00;99853.69;4991229;28;19918;-61
2023/12/05 05:23:53;;;;;;;;;;;;;;;3.20;100.00;99845.69;4997229;28;19917;-61
2023/12/05 05:26:18;;;;;;;;;;;;;;;3.21;100.00;99846.50;4993943;28;19924;-61
2023/12/05 05:28:43;;;;;;;;;;;;;;;3.22;100.00;99850.78;4998382;28;20589;-61
2023/12/05 05:31:08;;;;;;;;;;;;;;;3.23;100.00;99855.88;5000259;28;19925;-61
2023/12/05 05:33:34;;;;;;;;;;;;;;;3.24;100.00;99851.47;5002174;28;19972;-60
2023/12/05 05:35:59;;;;;;;;;;;;;;;3.23;100.00;99848.00;4997218;28;19924;-60
2023/12/05 05:38:24;;;;;;;;;;;;;;;3.23;100.00;99855.06;5000770;28;19943;-60
2023/12/05 05:40:49;;;;;;;;;;;;;;;3.21;100.00;99841.25;4995255;28;20282;-61
2023/12/05 05:43:14;;;;;;;;;;;;;;;3.20;100.00;99848.31;4999192;28;20345;-61
2023/12/05 05:45:40;;;;;;;;;;;;;;;3.19;100.00;99848.44;4990796;28;20438;-61
2023/12/05 05:48:05;;;;;;;;;;;;;;;3.17;100.00;99853.00;4998485;28;20016;-60
2023/12/05 05:50:30;;;;;;;;;;;;;;;3.16;100.00;99860.03;4994763;28;20228;-60
2023/12/05 05:52:55;;;;;;;;;;;;;;;3.14;100.00;99854.13;4994545;28;19968;-61
2023/12/05 05:55:24;;;;;;;;;;;;;;;3.13;100.00;99860.34;4989762;28;19917;-61
2023/12/05 05:57:50;;;;;;;;;;;;;;;3.11;100.00;99855.25;4996274;28;20390;-60
2023/12/05 06:00:15;;;;;;;;;;;;;;;3.11;100.00;99860.47;4994543;28;19917;-61
2023/12/05 06:02:40;;;;;;;;;;;;;;;3.09;100.00;99861.59;5001293;28;20390;-60
2023/12/05 06:05:05;;;;;;;;;;;;;;;3.09;100.00;99864.22;4998490;28;19921;-60
2023/12/05 06:07:31;;;;;;;;;;;;;;;3.07;100.00;99864.38;4992282;28;19925;-60
2023/12/05 06:09:56;;;;;;;;;;;;;;;3.06;100.00;99865.34;4998996;28;19968;-61
2023/12/05 06:12:22;;;;;;;;;;;;;;;3.05;100.00;99866.31;4995703;28;19921;-61
2023/12/05 06:14:47;;;;;;;;;;;;;;;3.05;100.00;99868.13;4991868;28;20362;-60
2023/12/05 06:17:13;;;;;;;;;;;;;;;3.03;100.00;99865.66;5000356;28;20446;-61
2023/12/05 06:19:38;;;;;;;;;;;;;;;3.02;100.00;99864.00;5002882;28;19936;-61
2023/12/05 06:22:03;;;;;;;;;;;;;;;3.01;100.00;99872.84;5000964;28;19917;-61
2023/12/05 06:24:28;;;;;;;;;;;;;;;3.01;100.00;99887.75;4998713;28;19929;-60
2023/12/05 06:26:54;;;;;;;;;;;;;;;3.00;100.00;99886.09;5001562;28;20458;-61
2023/12/05 06:29:19;;;;;;;;;;;;;;;2.98;100.00;99888.03;5000522;28;20043;-61
2023/12/05 06:31:44;;;;;;;;;;;;;;;2.98;100.00;99890.66;4999705;28;20374;-61
2023/12/05 06:34:09;;;;;;;;;;;;;;;2.98;100.00;99893.28;4997784;28;19917;-61
2023/12/05 06:36:34;;;;;;;;;;;;;;;2.96;100.00;99896.06;5000282;28;19971;-60
2023/12/05 06:39:00;;;;;;;;;;;;;;;2.96;100.00;99895.22;4997101;28;19917;-61
2023/12/05 06:41:25;;;;;;;;;;;;;;;2.93;100.00;99898.97;4997264;28;20275;-61
2023/12/05 06:43:51;;;;;;;;;;;;;;;2.91;100.00;99900.91;4998192;28;19921;-60
2023/12/05 06:46:16;;;;;;;;;;;;;;;2.88;100.00;99898.56;4999750;28;20406;-61
2023/12/05 06:48:42;;;;;;;;;;;;;;;2.85;100.00;99911.94;4994732;28;19994;-60
2023/12/05 06:51:08;;;;;;;;;;;;;;;2.82;100.00;99904.38;5003412;28;19924;-61
2023/12/05 06:53:34;;;;;;;;;;;;;;;2.79;100.00;99913.34;4997878;28;19921;-61
2023/12/05 06:55:59;;;;;;;;;;;;;;;2.79;100.00;99912.53;5000085;28;19917;-61
2023/12/05 06:58:25;;;;;;;;;;;;;;;2.77;100.00;99917.91;4995559;28;20024;-61
2023/12/05 07:00:50;;;;;;;;;;;;;;;2.74;100.00;99918.22;5000407;28;19917;-61
2023/12/05 07:03:15;;;;;;;;;;;;;;;2.74;100.00;99914.75;4997120;28;20003;-60
2023/12/05 07:05:40;;;;;;;;;;;;;;;2.71;100.00;99918.50;4993819;28;19971;-61
2023/12/05 07:08:06;;;;;;;;;;;;;;;2.70;100.00;99919.47;4998758;28;19917;-61
2023/12/05 07:10:32;;;;;;;;;;;;;;;2.69;100.00;99927.47;4995522;28;19965;-61
2023/12/05 07:12:57;;;;;;;;;;;;;;;2.68;100.00;99934.50;4992786;28;19920;-61
2023/12/05 07:15:22;;;;;;;;;;;;;;;2.66;100.00;99936.44;4997521;28;20024;-61
2023/12/05 07:17:47;;;;;;;;;;;;;;;2.65;100.00;99937.41;4999210;28;20031;-61
2023/12/05 07:20:13;;;;;;;;;;;;;;;2.66;100.00;99951.34;4996733;28;19922;-61
2023/12/05 07:22:38;;;;;;;;;;;;;;;2.66;100.00;99949.56;5004079;28;20024;-61
2023/12/05 07:25:04;;;;;;;;;;;;;;;2.67;100.00;99953.00;5002743;28;19924;-61
2023/12/05 07:27:29;;;;;;;;;;;;;;;2.67;100.00;99966.09;4994258;28;19927;-61
2023/12/05 07:29:54;;;;;;;;;;;;;;;2.66;100.00;99965.28;5001658;28;20252;-61
2023/12/05 07:32:19;;;;;;;;;;;;;;;2.67;100.00;99972.19;4995345;28;19918;-61
2023/12/05 07:34:44;;;;;;;;;;;;;;;2.67;100.00;99969.56;4997393;28;20001;-61
2023/12/05 07:37:10;;;;;;;;;;;;;;;2.67;100.00;99974.81;4995816;28;19937;-60
2023/12/05 07:39:36;;;;;;;;;;;;;;;2.67;100.00;99974.81;5000933;28;20634;-61
2023/12/05 07:42:01;;;;;;;;;;;;;;;2.68;100.00;99976.47;4996246;28;19928;-61
2023/12/05 07:44:27;;;;;;;;;;;;;;;2.67;100.00;99982.66;4997597;28;19917;-61
2023/12/05 07:46:52;;;;;;;;;;;;;;;2.68;100.00;99989.56;4995105;28;19917;-61
2023/12/05 07:49:17;;;;;;;;;;;;;;;2.69;100.00;99987.75;4994511;28;19928;-61
2023/12/05 07:51:42;;;;;;;;;;;;;;;2.68;100.00;99994.81;4993135;28;20240;-61
2023/12/05 07:54:08;;;;;;;;;;;;;;;2.68;100.00;99997.41;4994791;28;20311;-61
2023/12/05 07:56:33;;;;;;;;;;;;;;;2.70;100.00;100000.72;4992263;28;19918;-61
2023/12/05 07:58:58;;;;;;;;;;;;;;;2.71;100.00;100012.88;4991282;28;19917;-61
2023/12/05 08:01:23;;;;;;;;;;;;;;;2.71;100.00;100017.28;4993290;28;19971;-61
2023/12/05 08:03:48;;;;;;;;;;;;;;;2.72;100.00;100027.63;4997880;28;19943;-61
2023/12/05 08:06:14;;;;;;;;;;;;;;;2.72;100.00;100024.19;4994666;28;19925;-61
2023/12/05 08:08:39;;;;;;;;;;;;;;;2.72;100.00;100021.56;4990601;28;19917;-61
2023/12/05 08:11:05;;;;;;;;;;;;;;;2.72;100.00;100024.19;4995757;28;19922;-61
2023/12/05 08:13:30;;;;;;;;;;;;;;;2.73;100.00;100028.44;4994945;28;19980;-60
2023/12/05 08:15:55;;;;;;;;;;;;;;;2.73;100.00;100029.28;4991381;28;19914;-60
2023/12/05 08:18:21;;;;;;;;;;;;;;;2.73;100.00;100038.94;4988761;28;20032;-61
2023/12/05 08:20:46;;;;;;;;;;;;;;;2.71;100.00;100033.84;4998415;28;20609;-61
2023/12/05 08:23:12;;;;;;;;;;;;;;;2.71;100.00;100041.72;4997984;28;19914;-61
2023/12/05 08:25:37;;;;;;;;;;;;;;;2.72;100.00;100037.28;4996356;28;19972;-61
2023/12/05 08:28:02;;;;;;;;;;;;;;;2.72;100.00;100040.72;5002893;28;20454;-62
2023/12/05 08:30:27;;;;;;;;;;;;;;;2.73;100.00;100039.75;4994310;28;19922;-61
2023/12/05 08:32:56;;;;;;;;;;;;;;;2.73;100.00;100047.63;5001094;28;19917;-61
2023/12/05 08:35:22;;;;;;;;;;;;;;;2.74;100.00;100051.91;4995554;28;20441;-62
2023/12/05 08:37:47;;;;;;;;;;;;;;;2.73;100.00;100052.06;4995733;28;19917;-62
2023/12/05 08:40:12;;;;;;;;;;;;;;;2.73;100.00;100055.50;4996153;28;19967;-61
2023/12/05 08:42:39;;;;;;;;;;;;;;;2.72;100.00;100055.63;4993617;28;19913;-61
2023/12/05 08:45:04;;;;;;;;;;;;;;;2.68;100.00;100056.88;4999151;28;19924;-61
2023/12/05 08:47:30;;;;;;;;;;;;;;;2.72;100.00;100066.94;4991833;28;19917;-61
2023/12/05 08:49:55;;;;;;;;;;;;;;;2.73;100.00;100065.16;4997239;28;19921;-61
2023/12/05 08:52:20;;;;;;;;;;;;;;;2.73;100.00;100065.16;4995067;28;19924;-61
2023/12/05 08:54:45;;;;;;;;;;;;;;;2.73;100.00;100063.38;4993781;28;19917;-61
2023/12/05 08:57:10;;;;;;;;;;;;;;;2.74;100.00;100070.25;4992766;28;19917;-61
2023/12/05 08:59:37;;;;;;;;;;;;;;;2.74;100.00;100070.25;4991170;28;20016;-61
2023/12/05 09:02:02;;;;;;;;;;;;;;;2.77;100.00;100069.16;4992864;28;20000;-61
2023/12/05 09:04:27;;;;;;;;;;;;;;;2.78;100.00;100066.38;4996277;28;19922;-61
2023/12/05 09:06:53;;;;;;;;;;;;;;;2.73;100.00;100068.59;4991907;28;19917;-61
2023/12/05 09:09:18;;;;;;;;;;;;;;;2.80;100.00;100069.69;4991573;28;20015;-62
2023/12/05 09:11:45;;;;;;;;;;;;;;;2.83;100.00;100076.44;4989239;28;19917;-62
2023/12/05 09:14:10;;;;;;;;;;;;;;;2.84;100.00;100075.47;4993551;28;20558;-61
2023/12/05 09:16:35;;;;;;;;;;;;;;;2.85;100.00;100081.56;4984458;28;19925;-61
2023/12/05 09:19:01;;;;;;;;;;;;;;;2.86;100.00;100085.84;5001314;28;19917;-62
2023/12/05 09:21:26;;;;;;;;;;;;;;;2.85;100.00;100086.78;4986965;28;20024;-61
2023/12/05 09:23:51;;;;;;;;;;;;;;;2.86;100.00;100099.78;4994100;28;19923;-62
2023/12/05 09:26:18;;;;;;;;;;;;;;;2.87;100.00;100100.59;4999383;28;19917;-61
2023/12/05 09:28:43;;;;;;;;;;;;;;;2.89;100.00;100102.13;4997524;28;19952;-62
2023/12/05 09:31:08;;;;;;;;;;;;;;;2.85;100.00;100097.28;4992571;28;20012;-61
2023/12/05 09:33:33;;;;;;;;;;;;;;;2.92;100.00;100107.09;4998621;28;19921;-61
2023/12/05 09:35:59;;;;;;;;;;;;;;;2.95;100.00;100111.25;4995347;28;20429;-62
2023/12/05 09:38:24;;;;;;;;;;;;;;;2.96;100.00;100112.91;4995294;28;20514;-61
2023/12/05 09:40:51;;;;;;;;;;;;;;;2.98;100.00;100122.28;4992403;28;19929;-61
2023/12/05 09:43:20;;;;;;;;;;;;;;;2.98;100.00;100124.91;4993658;28;20024;-62
2023/12/05 09:45:46;;;;;;;;;;;;;;;2.98;100.00;100124.06;4993262;28;20330;-62
2023/12/05 09:48:11;;;;;;;;;;;;;;;2.98;100.00;100139.81;4995985;28;19917;-62
2023/12/05 09:50:37;;;;;;;;;;;;;;;2.98;100.00;100129.31;4989241;28;20525;-61
2023/12/05 09:53:02;;;;;;;;;;;;;;;2.99;100.00;100129.19;4992547;28;19921;-62
2023/12/05 09:55:27;;;;;;;;;;;;;;;2.99;100.00;100139.66;4993104;28;19917;-62
2023/12/05 09:57:55;;;;;;;;;;;;;;;3.01;100.00;100142.16;4994223;28;20612;-61
2023/12/05 10:00:20;;;;;;;;;;;;;;;3.00;100.00;100146.56;4994211;28;20488;-61
2023/12/05 10:02:46;;;;;;;;;;;;;;;3.01;100.00;100144.78;4981672;28;20579;-62
2023/12/05 10:05:14;;;;;;;;;;;;;;;3.02;100.00;100149.03;4995897;28;20769;-62
2023/12/05 10:07:39;;;;;;;;;;;;;;;3.03;100.00;100154.16;4994070;28;19972;-61
2023/12/05 10:10:05;;;;;;;;;;;;;;;3.04;100.00;100149.72;4988819;28;19925;-61
2023/12/05 10:12:31;;;;;;;;;;;;;;;3.06;100.00;100161.75;4993156;28;19917;-62
2023/12/05 10:14:56;;;;;;;;;;;;;;;3.07;100.00;100160.78;4991650;28;20314;-61
2023/12/05 10:17:21;;;;;;;;;;;;;;;3.07;100.00;100165.19;4989652;28;19929;-62
2023/12/05 10:19:47;;;;;;;;;;;;;;;3.06;100.00;100171.41;4986798;28;19922;-61
2023/12/05 10:22:12;;;;;;;;;;;;;;;3.06;100.00;100166.16;4988051;28;19925;-61
2023/12/05 10:24:50;;;;;;;;;;;;;;;3.08;100.00;100166.84;4993592;28;19924;-62
2023/12/05 10:27:16;;;;;;;;;;;;;;;3.09;100.00;100171.13;4997609;28;20331;-61
2023/12/05 10:29:42;;;;;;;;;;;;;;;3.10;100.00;100180.66;4999025;28;19928;-62
2023/12/05 10:32:10;;;;;;;;;;;;;;;3.13;100.00;100179.53;4998295;28;20012;-61
2023/12/05 10:34:52;;;;;;;;;;;;;;;3.17;100.00;100180.91;4998128;28;19917;-62
2023/12/05 10:37:24;;;;;;;;;;;;;;;3.20;100.00;100184.13;4996123;28;19987;-61
2023/12/05 10:39:49;;;;;;;;;;;;;;;3.21;100.00;100184.94;4994022;28;20040;-61
2023/12/05 10:42:15;;;;;;;;;;;;;;;3.21;100.00;100191.03;4994349;28;20000;-61
2023/12/05 10:44:40;;;;;;;;;;;;;;;3.21;100.00;100188.41;4995243;28;20425;-61
2023/12/05 10:47:06;;;;;;;;;;;;;;;3.22;100.00;100197.09;4995834;28;19917;-61
2023/12/05 10:49:32;;;;;;;;;;;;;;;3.22;100.00;100197.09;4998631;28;19922;-62
2023/12/05 10:51:57;;;;;;;;;;;;;;;3.21;100.00;100198.88;4995543;28;19921;-61
2023/12/05 10:54:24;;;;;;;;;;;;;;;3.21;100.00;100196.25;4991692;28;19917;-61
2023/12/05 10:56:57;;;;;;;;;;;;;;;3.21;100.00;100198.88;4992446;28;20038;-61
2023/12/05 10:59:23;;;;;;;;;;;;;;;3.20;100.00;100202.47;4993117;28;20386;-61
2023/12/05 11:01:49;;;;;;;;;;;;;;;3.18;100.00;100204.41;4994261;28;19917;-62
2023/12/05 11:04:16;;;;;;;;;;;;;;;3.15;100.00;100199.41;4993225;28;19924;-62
2023/12/05 11:06:41;;;;;;;;;;;;;;;3.12;100.00;100207.56;4995445;28;19971;-62
2023/12/05 11:09:07;;;;;;;;;;;;;;;3.12;100.00;100210.19;4992134;28;19921;-61
2023/12/05 11:11:33;;;;;;;;;;;;;;;3.11;100.00;100217.22;4991297;28;20592;-62
2023/12/05 11:13:59;;;;;;;;;;;;;;;3.11;100.00;100219.84;4992842;28;19941;-62
2023/12/05 11:16:28;;;;;;;;;;;;;;;3.12;100.00;100218.06;4985620;28;20655;-62
2023/12/05 11:19:02;;;;;;;;;;;;;;;3.12;100.00;100220.69;4991436;28;20408;-61
2023/12/05 11:21:33;;;;;;;;;;;;;;;3.11;100.00;100224.28;4986123;28;19917;-61
2023/12/05 11:24:15;;;;;;;;;;;;;;;3.10;100.00;100220.00;4995862;28;19917;-62
2023/12/05 11:26:49;;;;;;;;;;;;;;;3.09;100.00;100218.34;4986998;28;20038;-61
2023/12/05 11:29:29;;;;;;;;;;;;;;;3.09;100.00;100227.03;4988047;28;19917;-61
2023/12/05 11:32:01;;;;;;;;;;;;;;;3.08;100.00;100225.38;4997274;28;19956;-62
2023/12/05 11:34:45;;;;;;;;;;;;;;;3.09;100.00;100226.22;5000046;28;19971;-61
2023/12/05 11:37:22;;;;;;;;;;;;;;;3.04;100.00;100231.88;5000627;28;20406;-61
2023/12/05 11:39:50;;;;;;;;;;;;;;;3.00;100.00;100233.13;4999998;28;19918;-61
2023/12/05 11:42:15;;;;;;;;;;;;;;;2.97;100.00;100238.63;4997444;28;20570;-61
2023/12/05 11:44:43;;;;;;;;;;;;;;;2.96;100.00;100236.16;4996547;28;19918;-61
2023/12/05 11:47:17;;;;;;;;;;;;;;;2.95;100.00;100247.59;5001600;28;20540;-61
2023/12/05 11:49:45;;;;;;;;;;;;;;;2.93;100.00;100249.53;4996547;28;19924;-61
2023/12/05 11:52:10;;;;;;;;;;;;;;;2.91;100.00;100252.31;4998670;28;20375;-62
2023/12/05 11:54:36;;;;;;;;;;;;;;;2.92;100.00;100255.75;4997296;28;19924;-61
2023/12/05 11:57:12;;;;;;;;;;;;;;;2.90;100.00;100258.50;4997986;28;20325;-61
2023/12/05 11:59:40;;;;;;;;;;;;;;;2.90;100.00;100263.75;4998550;28;19924;-62
2023/12/05 12:02:06;;;;;;;;;;;;;;;2.91;100.00;100264.59;4993962;28;19917;-61
2023/12/05 12:04:32;;;;;;;;;;;;;;;2.91;100.00;100264.59;4991979;28;19921;-62
2023/12/05 12:06:57;;;;;;;;;;;;;;;2.91;100.00;100269.84;5000611;28;19941;-62
2023/12/05 12:09:22;;;;;;;;;;;;;;;2.88;100.00;100267.44;4993961;28;19935;-62
2023/12/05 12:11:48;;;;;;;;;;;;;;;2.83;100.00;100274.91;4989957;28;19918;-61
2023/12/05 12:14:14;;;;;;;;;;;;;;;2.79;100.00;100277.78;4995877;28;20491;-61
2023/12/05 12:16:40;;;;;;;;;;;;;;;2.77;100.00;100274.47;4988377;28;19923;-62
2023/12/05 12:19:08;;;;;;;;;;;;;;;2.76;100.00;100275.44;4995126;28;19943;-62
2023/12/05 12:21:34;;;;;;;;;;;;;;;2.77;100.00;100279.72;4995836;28;19977;-61
2023/12/05 12:23:59;;;;;;;;;;;;;;;2.79;100.00;100280.41;4997549;28;20347;-61
2023/12/05 12:26:24;;;;;;;;;;;;;;;2.79;100.00;100280.41;4994125;28;20472;-62
2023/12/05 12:28:49;;;;;;;;;;;;;;;2.79;100.00;100290.91;4990148;28;19925;-61
2023/12/05 12:31:25;;;;;;;;;;;;;;;2.78;100.00;100286.63;5000922;28;19922;-61
2023/12/05 12:33:50;;;;;;;;;;;;;;;2.78;100.00;100278.75;4995364;28;20416;-62
2023/12/05 12:36:18;;;;;;;;;;;;;;;2.78;100.00;100291.03;5002217;28;20008;-61